createdAt,value
2018-12-14T00:00:15.045Z,76.1
2018-12-14T00:01:16.390Z,76.3
2018-12-14T00:02:17.741Z,76.4
2018-12-14T00:03:19.097Z,76.1
2018-12-14T00:04:21.695Z,76.4
2018-12-14T00:05:23.039Z,76.1
2018-12-14T00:06:30.419Z,76.2
2018-12-14T00:07:30.812Z,76.2
2018-12-14T00:08:32.140Z,76.4
2018-12-14T00:09:33.495Z,76.2
2018-12-14T00:10:35.460Z,76.3
2018-12-14T00:11:36.795Z,76.3
2018-12-14T00:12:38.152Z,76.3
2018-12-14T00:13:40.266Z,76.2
2018-12-14T00:14:42.220Z,76.2
2018-12-14T00:15:43.563Z,76.3
2018-12-14T00:16:45.602Z,76.4
2018-12-14T00:17:48.906Z,76.3
2018-12-14T00:18:50.262Z,76.2
2018-12-14T00:19:51.605Z,76.3
2018-12-14T00:20:53.814Z,76.1
2018-12-14T00:21:55.930Z,76.3
2018-12-14T00:22:57.272Z,76.3
2018-12-14T00:23:58.617Z,76.1
2018-12-14T00:24:59.959Z,76.2
2018-12-14T00:26:01.304Z,76.2
2018-12-14T00:27:02.654Z,76.3
2018-12-14T00:28:04.749Z,76.3
2018-12-14T00:29:06.085Z,76.2
2018-12-14T00:30:08.126Z,76.3
2018-12-14T00:31:09.465Z,76.3
2018-12-14T00:32:10.816Z,76.2
2018-12-14T00:33:12.611Z,76.2
2018-12-14T00:34:14.747Z,76.2
2018-12-14T00:35:16.086Z,76.1
2018-12-14T00:36:17.437Z,76.0
2018-12-14T00:37:18.772Z,76.4
2018-12-14T00:38:20.124Z,76.1
2018-12-14T00:39:21.464Z,76.3
2018-12-14T00:40:22.814Z,76.3
2018-12-14T00:41:25.731Z,76.3
2018-12-14T00:42:31.422Z,76.5
2018-12-14T00:43:31.919Z,76.4
2018-12-14T00:44:33.270Z,76.5
2018-12-14T00:45:34.611Z,76.4
2018-12-14T00:46:54.895Z,76.6
2018-12-14T00:47:56.237Z,76.6
2018-12-14T00:48:58.161Z,76.7
2018-12-14T00:49:59.507Z,77.1
2018-12-14T00:51:00.894Z,76.7
2018-12-14T00:52:02.240Z,76.7
2018-12-14T00:53:03.590Z,76.7
2018-12-14T00:54:05.491Z,76.7
2018-12-14T00:55:07.818Z,77.0
2018-12-14T00:56:12.247Z,76.7
2018-12-14T00:57:17.424Z,76.9
2018-12-14T00:58:22.021Z,77.3
2018-12-14T00:59:23.367Z,76.9
2018-12-14T01:00:24.726Z,77.0
2018-12-14T01:01:26.070Z,77.0
2018-12-14T01:02:27.414Z,77.0
2018-12-14T01:03:28.811Z,77.1
2018-12-14T01:04:30.211Z,76.9
2018-12-14T01:05:31.638Z,77.0
2018-12-14T01:06:32.991Z,76.9
2018-12-14T01:07:35.092Z,77.2
2018-12-14T01:08:35.685Z,76.9
2018-12-14T01:09:37.126Z,77.3
2018-12-14T01:10:38.489Z,76.9
2018-12-14T01:11:42.470Z,77.0
2018-12-14T01:12:44.595Z,77.1
2018-12-14T01:13:46.872Z,77.1
2018-12-14T01:14:48.221Z,77.0
2018-12-14T01:15:52.507Z,77.3
2018-12-14T01:16:54.601Z,77.2
2018-12-14T01:17:55.931Z,77.0
2018-12-14T01:18:59.575Z,77.1
2018-12-14T01:20:00.925Z,77.0
2018-12-14T01:21:02.271Z,76.9
2018-12-14T01:22:03.612Z,76.9
2018-12-14T01:23:04.965Z,77.0
2018-12-14T01:24:06.312Z,77.2
2018-12-14T01:25:07.660Z,77.0
2018-12-14T01:26:09.021Z,77.0
2018-12-14T01:27:10.368Z,77.1
2018-12-14T01:28:12.598Z,77.0
2018-12-14T01:29:15.764Z,77.0
2018-12-14T01:30:17.762Z,77.3
2018-12-14T01:31:19.119Z,76.9
2018-12-14T01:32:21.007Z,76.9
2018-12-14T01:33:23.200Z,76.7
2018-12-14T01:34:24.550Z,76.8
2018-12-14T01:35:26.794Z,77.2
2018-12-14T01:36:29.875Z,77.1
2018-12-14T01:37:31.222Z,76.9
2018-12-14T01:38:32.565Z,76.8
2018-12-14T01:39:33.915Z,76.7
2018-12-14T01:40:36.035Z,76.7
2018-12-14T01:41:38.045Z,77.3
2018-12-14T01:42:40.257Z,77.4
2018-12-14T01:43:42.430Z,77.2
2018-12-14T01:44:42.902Z,77.4
2018-12-14T01:45:44.259Z,77.2
2018-12-14T01:46:45.598Z,77.2
2018-12-14T01:47:46.947Z,77.3
2018-12-14T01:48:48.290Z,77.2
2018-12-14T01:49:52.795Z,77.3
2018-12-14T01:50:54.142Z,77.4
2018-12-14T01:51:55.487Z,77.4
2018-12-14T01:52:56.842Z,77.4
2018-12-14T01:53:58.674Z,77.0
2018-12-14T01:55:00.019Z,77.4
2018-12-14T01:56:01.370Z,77.3
2018-12-14T01:57:02.717Z,77.0
2018-12-14T01:58:04.066Z,77.2
2018-12-14T01:59:05.409Z,77.5
2018-12-14T02:00:06.765Z,77.6
2018-12-14T02:01:08.092Z,77.5
2018-12-14T02:02:09.437Z,77.5
2018-12-14T02:03:11.726Z,77.7
2018-12-14T02:04:13.986Z,77.7
2018-12-14T02:05:15.340Z,77.7
2018-12-14T02:06:16.681Z,77.5
2018-12-14T02:07:18.041Z,77.7
2018-12-14T02:08:20.660Z,77.5
2018-12-14T02:09:22.007Z,77.5
2018-12-14T02:10:24.768Z,77.7
2018-12-14T02:11:27.441Z,77.1
2018-12-14T02:12:28.059Z,77.2
2018-12-14T02:13:29.943Z,77.7
2018-12-14T02:14:32.628Z,77.6
2018-12-14T02:15:33.971Z,77.7
2018-12-14T02:16:36.687Z,77.7
2018-12-14T02:17:38.040Z,77.5
2018-12-14T02:18:39.391Z,77.5
2018-12-14T02:19:41.452Z,77.7
2018-12-14T02:20:43.608Z,77.7
2018-12-14T02:21:44.956Z,77.5
2018-12-14T02:22:46.301Z,77.3
2018-12-14T02:23:47.652Z,77.6
2018-12-14T02:24:51.302Z,77.6
2018-12-14T02:25:54.027Z,77.5
2018-12-14T02:26:56.096Z,77.2
2018-12-14T02:27:58.096Z,77.2
2018-12-14T02:28:59.616Z,76.8
2018-12-14T02:30:01.508Z,76.7
2018-12-14T02:31:02.856Z,77.0
2018-12-14T02:32:04.787Z,77.2
2018-12-14T02:33:06.133Z,77.0
2018-12-14T02:34:07.471Z,76.9
2018-12-14T02:35:08.827Z,76.7
2018-12-14T02:36:11.950Z,77.1
2018-12-14T02:37:12.371Z,76.6
2018-12-14T02:38:15.121Z,76.4
2018-12-14T02:39:16.471Z,76.6
2018-12-14T02:40:18.739Z,76.5
2018-12-14T02:41:20.079Z,76.4
2018-12-14T02:42:22.337Z,76.4
2018-12-14T02:43:23.688Z,76.3
2018-12-14T02:44:25.611Z,76.4
2018-12-14T02:45:26.946Z,76.6
2018-12-14T02:46:28.292Z,76.7
2018-12-14T02:47:31.084Z,76.7
2018-12-14T02:48:33.142Z,76.6
2018-12-14T02:49:34.482Z,76.6
2018-12-14T02:50:36.725Z,76.6
2018-12-14T02:51:38.072Z,76.7
2018-12-14T02:52:41.031Z,76.4
2018-12-14T02:53:42.392Z,76.6
2018-12-14T02:54:43.737Z,76.4
2018-12-14T02:55:45.079Z,76.5
2018-12-14T02:56:46.425Z,76.6
2018-12-14T02:57:48.531Z,76.5
2018-12-14T02:58:49.879Z,76.4
2018-12-14T02:59:52.053Z,76.5
2018-12-14T03:00:54.295Z,76.8
2018-12-14T03:01:56.493Z,77.0
2018-12-14T03:02:57.836Z,77.1
2018-12-14T03:03:59.171Z,77.1
2018-12-14T03:05:01.508Z,76.7
2018-12-14T03:06:02.854Z,76.7
2018-12-14T03:07:04.918Z,76.9
2018-12-14T03:08:06.276Z,77.0
2018-12-14T03:09:08.333Z,76.8
2018-12-14T03:10:11.548Z,76.6
2018-12-14T03:11:12.889Z,76.8
2018-12-14T03:12:14.790Z,76.6
2018-12-14T03:13:18.939Z,76.4
2018-12-14T03:14:19.439Z,76.0
2018-12-14T03:15:20.792Z,76.3
2018-12-14T03:16:22.902Z,76.1
2018-12-14T03:17:25.081Z,76.1
2018-12-14T03:18:26.423Z,76.4
2018-12-14T03:19:28.634Z,76.3
2018-12-14T03:20:29.982Z,76.3
2018-12-14T03:21:33.587Z,76.4
2018-12-14T03:22:35.840Z,76.6
2018-12-14T03:23:37.192Z,76.5
2018-12-14T03:24:39.332Z,76.5
2018-12-14T03:25:40.687Z,76.5
2018-12-14T03:26:42.746Z,76.5
2018-12-14T03:27:44.096Z,76.5
2018-12-14T03:28:45.440Z,76.6
2018-12-14T03:29:46.788Z,76.5
2018-12-14T03:30:48.139Z,76.6
2018-12-14T03:31:50.311Z,76.7
2018-12-14T03:32:51.663Z,77.3
2018-12-14T03:33:54.316Z,77.1
2018-12-14T03:34:55.670Z,77.0
2018-12-14T03:35:57.019Z,76.5
2018-12-14T03:36:59.104Z,76.7
2018-12-14T03:38:00.444Z,76.7
2018-12-14T03:39:01.804Z,76.8
2018-12-14T03:40:04.095Z,77.0
2018-12-14T03:41:05.487Z,76.9
2018-12-14T03:42:06.820Z,76.9
2018-12-14T03:43:08.168Z,76.9
2018-12-14T03:44:09.517Z,76.7
2018-12-14T03:45:10.864Z,77.1
2018-12-14T03:46:13.848Z,77.0
2018-12-14T03:47:15.203Z,77.0
2018-12-14T03:48:16.553Z,76.9
2018-12-14T03:49:17.889Z,76.6
2018-12-14T03:50:19.241Z,76.7
2018-12-14T03:51:20.589Z,76.7
2018-12-14T03:52:21.939Z,76.6
2018-12-14T03:53:23.274Z,76.7
2018-12-14T03:54:24.611Z,77.0
2018-12-14T03:55:27.523Z,77.1
2018-12-14T03:56:28.874Z,77.0
2018-12-14T03:57:34.079Z,77.3
2018-12-14T03:58:35.419Z,76.9
2018-12-14T03:59:36.763Z,76.9
2018-12-14T04:00:38.110Z,77.3
2018-12-14T04:01:39.444Z,77.0
2018-12-14T04:02:40.796Z,76.7
2018-12-14T04:03:42.144Z,76.8
2018-12-14T04:04:44.313Z,77.4
2018-12-14T04:05:45.661Z,77.2
2018-12-14T04:06:47.010Z,77.3
2018-12-14T04:07:49.056Z,77.2
2018-12-14T04:08:50.394Z,77.6
2018-12-14T04:09:51.746Z,77.7
2018-12-14T04:10:53.899Z,77.3
2018-12-14T04:11:55.237Z,77.3
2018-12-14T04:12:56.589Z,77.3
2018-12-14T04:13:58.879Z,77.5
2018-12-14T04:15:00.236Z,77.8
2018-12-14T04:16:03.451Z,77.2
2018-12-14T04:17:03.730Z,77.5
2018-12-14T04:18:06.094Z,77.7
2018-12-14T04:19:07.957Z,77.7
2018-12-14T04:20:08.761Z,77.5
2018-12-14T04:21:10.801Z,77.7
2018-12-14T04:22:12.151Z,77.7
2018-12-14T04:23:13.502Z,77.7
2018-12-14T04:24:15.803Z,77.7
2018-12-14T04:25:19.705Z,77.5
2018-12-14T04:26:21.049Z,77.8
2018-12-14T04:27:22.400Z,77.5
2018-12-14T04:28:23.745Z,77.7
2018-12-14T04:29:25.090Z,77.5
2018-12-14T04:30:26.439Z,77.5
2018-12-14T04:31:27.786Z,77.7
2018-12-14T04:32:29.132Z,77.7
2018-12-14T04:33:31.391Z,77.7
2018-12-14T04:34:35.465Z,77.3
2018-12-14T04:35:35.844Z,77.5
2018-12-14T04:36:37.189Z,77.3
2018-12-14T04:37:38.530Z,77.3
2018-12-14T04:38:39.880Z,77.4
2018-12-14T04:39:41.230Z,77.6
2018-12-14T04:40:42.744Z,77.5
2018-12-14T04:41:44.605Z,77.7
2018-12-14T04:42:48.977Z,77.6
2018-12-14T04:43:47.894Z,77.6
2018-12-14T04:44:49.249Z,77.5
2018-12-14T04:45:50.585Z,77.3
2018-12-14T04:46:52.579Z,77.3
2018-12-14T04:47:53.911Z,77.5
2018-12-14T04:48:55.380Z,77.5
2018-12-14T04:49:56.724Z,77.4
2018-12-14T04:50:58.070Z,77.4
2018-12-14T04:52:01.195Z,77.3
2018-12-14T04:53:05.134Z,77.5
2018-12-14T04:54:06.487Z,77.5
2018-12-14T04:55:07.825Z,77.5
2018-12-14T04:56:09.177Z,77.6
2018-12-14T04:57:11.457Z,77.5
2018-12-14T04:58:13.649Z,77.7
2018-12-14T04:59:15.002Z,77.7
2018-12-14T05:00:16.360Z,77.5
2018-12-14T05:01:17.709Z,77.7
2018-12-14T05:02:19.060Z,77.7
2018-12-14T05:03:21.920Z,77.7
2018-12-14T05:04:23.257Z,77.3
2018-12-14T05:05:26.318Z,77.5
2018-12-14T05:06:28.546Z,77.3
2018-12-14T05:07:30.699Z,77.5
2018-12-14T05:08:32.045Z,77.3
2018-12-14T05:09:33.403Z,77.3
2018-12-14T05:10:36.247Z,77.8
2018-12-14T05:11:37.594Z,77.2
2018-12-14T05:12:39.871Z,77.5
2018-12-14T05:13:42.986Z,77.7
2018-12-14T05:14:44.343Z,77.7
2018-12-14T05:15:45.684Z,77.3
2018-12-14T05:16:47.037Z,77.3
2018-12-14T05:17:48.402Z,77.3
2018-12-14T05:18:49.744Z,77.3
2018-12-14T05:19:52.996Z,77.3
2018-12-14T05:20:54.359Z,77.3
2018-12-14T05:21:55.705Z,77.8
2018-12-14T05:22:57.063Z,77.5
2018-12-14T05:23:58.420Z,77.8
2018-12-14T05:25:01.307Z,77.7
2018-12-14T05:26:02.651Z,77.5
2018-12-14T05:27:03.995Z,77.5
2018-12-14T05:28:06.926Z,77.2
2018-12-14T05:29:09.130Z,77.5
2018-12-14T05:30:10.483Z,77.3
2018-12-14T05:31:11.836Z,77.0
2018-12-14T05:32:13.185Z,77.5
2018-12-14T05:33:15.530Z,77.6
2018-12-14T05:34:18.555Z,77.8
2018-12-14T05:35:20.496Z,77.5
2018-12-14T05:36:23.690Z,77.7
2018-12-14T05:37:26.052Z,77.3
2018-12-14T05:38:27.409Z,77.5
2018-12-14T05:39:29.575Z,77.5
2018-12-14T05:40:30.956Z,77.5
2018-12-14T05:41:32.312Z,77.3
2018-12-14T05:42:33.655Z,77.5
2018-12-14T05:43:35.014Z,77.6
2018-12-14T05:44:37.776Z,77.6
2018-12-14T05:45:39.123Z,77.5
2018-12-14T05:46:40.471Z,77.5
2018-12-14T05:47:41.819Z,77.5
2018-12-14T05:48:43.161Z,77.6
2018-12-14T05:49:44.497Z,77.7
2018-12-14T05:50:45.921Z,77.5
2018-12-14T05:51:47.266Z,77.5
2018-12-14T05:52:48.620Z,77.5
2018-12-14T05:53:49.977Z,77.5
2018-12-14T05:54:52.002Z,77.8
2018-12-14T05:55:53.347Z,77.2
2018-12-14T05:56:54.702Z,77.8
2018-12-14T05:57:58.117Z,77.7
2018-12-14T05:59:02.420Z,77.3
2018-12-14T06:00:05.005Z,77.6
2018-12-14T06:01:06.275Z,77.6
2018-12-14T06:02:08.585Z,77.5
2018-12-14T06:03:09.947Z,77.7
2018-12-14T06:04:11.799Z,77.6
2018-12-14T06:05:14.297Z,77.6
2018-12-14T06:06:16.361Z,77.5
2018-12-14T06:07:17.721Z,77.7
2018-12-14T06:08:19.082Z,77.7
2018-12-14T06:09:21.265Z,77.1
2018-12-14T06:10:23.270Z,77.4
2018-12-14T06:11:24.611Z,77.7
2018-12-14T06:12:27.509Z,77.5
2018-12-14T06:13:28.159Z,77.4
2018-12-14T06:14:29.496Z,77.5
2018-12-14T06:15:30.857Z,77.7
2018-12-14T06:16:32.227Z,77.6
2018-12-14T06:17:33.573Z,77.6
2018-12-14T06:18:34.961Z,77.5
2018-12-14T06:19:36.431Z,77.5
2018-12-14T06:20:37.781Z,78.0
2018-12-14T06:21:39.129Z,77.9
2018-12-14T06:22:41.351Z,77.7
2018-12-14T06:23:42.718Z,78.0
2018-12-14T06:24:44.828Z,78.0
2018-12-14T06:25:46.655Z,78.2
2018-12-14T06:26:47.992Z,78.0
2018-12-14T06:27:50.007Z,78.0
2018-12-14T06:28:50.729Z,77.9
2018-12-14T06:29:52.020Z,78.3
2018-12-14T06:30:53.397Z,78.0
2018-12-14T06:31:54.753Z,78.0
2018-12-14T06:32:56.660Z,78.0
2018-12-14T06:33:58.010Z,78.0
2018-12-14T06:35:01.100Z,78.0
2018-12-14T06:36:02.447Z,77.9
2018-12-14T06:37:03.788Z,78.0
2018-12-14T06:38:05.132Z,77.9
2018-12-14T06:39:06.473Z,78.0
2018-12-14T06:40:07.834Z,77.9
2018-12-14T06:41:09.167Z,77.5
2018-12-14T06:42:11.372Z,77.6
2018-12-14T06:43:15.419Z,77.7
2018-12-14T06:44:14.668Z,77.4
2018-12-14T06:45:16.007Z,77.3
2018-12-14T06:46:17.363Z,77.4
2018-12-14T06:47:19.948Z,77.4
2018-12-14T06:48:21.995Z,77.3
2018-12-14T06:49:23.337Z,77.7
2018-12-14T06:50:25.268Z,77.2
2018-12-14T06:51:27.388Z,77.2
2018-12-14T06:52:28.728Z,77.6
2018-12-14T06:53:32.461Z,77.5
2018-12-14T06:54:33.812Z,77.7
2018-12-14T06:55:35.153Z,77.5
2018-12-14T06:56:36.526Z,77.6
2018-12-14T06:57:37.889Z,77.3
2018-12-14T06:58:39.883Z,77.4
2018-12-14T06:59:43.249Z,77.2
2018-12-14T07:00:45.438Z,77.0
2018-12-14T07:01:47.588Z,77.2
2018-12-14T07:02:48.936Z,76.9
2018-12-14T07:03:50.286Z,77.0
2018-12-14T07:04:52.716Z,77.2
2018-12-14T07:05:54.060Z,76.7
2018-12-14T07:06:55.398Z,76.7
2018-12-14T07:07:56.750Z,76.9
2018-12-14T07:09:00.373Z,76.6
2018-12-14T07:10:03.793Z,76.6
2018-12-14T07:11:05.138Z,76.8
2018-12-14T07:12:06.492Z,77.1
2018-12-14T07:13:07.864Z,77.1
2018-12-14T07:14:09.228Z,77.0
2018-12-14T07:15:10.572Z,77.2
2018-12-14T07:16:11.921Z,77.0
2018-12-14T07:17:14.122Z,77.0
2018-12-14T07:18:15.472Z,77.2
2018-12-14T07:19:16.825Z,76.6
2018-12-14T07:20:18.851Z,76.9
2018-12-14T07:21:20.888Z,77.0
2018-12-14T07:22:22.255Z,77.0
2018-12-14T07:23:24.191Z,77.0
2018-12-14T07:24:25.538Z,77.2
2018-12-14T07:25:26.887Z,76.9
2018-12-14T07:26:28.237Z,77.2
2018-12-14T07:27:29.588Z,77.0
2018-12-14T07:28:30.943Z,76.9
2018-12-14T07:29:33.792Z,76.9
2018-12-14T07:30:35.743Z,76.9
2018-12-14T07:31:37.854Z,77.3
2018-12-14T07:32:40.817Z,76.8
2018-12-14T07:33:42.181Z,77.4
2018-12-14T07:34:44.023Z,77.2
2018-12-14T07:35:45.373Z,77.2
2018-12-14T07:36:46.724Z,77.0
2018-12-14T07:37:48.087Z,77.2
2018-12-14T07:38:51.725Z,77.6
2018-12-14T07:39:51.981Z,77.4
2018-12-14T07:40:53.333Z,77.3
2018-12-14T07:41:54.692Z,77.3
2018-12-14T07:43:10.186Z,77.3
2018-12-14T07:44:12.528Z,77.3
2018-12-14T07:45:13.863Z,77.3
2018-12-14T07:46:16.099Z,77.3
2018-12-14T07:47:18.937Z,77.6
2018-12-14T07:48:21.117Z,77.6
2018-12-14T07:49:22.492Z,77.0
2018-12-14T07:50:24.920Z,77.2
2018-12-14T07:51:28.023Z,77.2
2018-12-14T07:52:29.359Z,77.4
2018-12-14T07:53:30.704Z,77.0
2018-12-14T07:54:32.062Z,76.7
2018-12-14T07:55:33.407Z,76.9
2018-12-14T07:56:34.745Z,76.8
2018-12-14T07:57:36.102Z,76.8
2018-12-14T07:58:37.439Z,77.0
2018-12-14T07:59:39.387Z,77.1
2018-12-14T08:00:40.728Z,77.2
2018-12-14T08:01:42.096Z,76.7
2018-12-14T08:02:44.208Z,76.6
2018-12-14T08:03:45.552Z,76.6
2018-12-14T08:04:46.903Z,76.6
2018-12-14T08:05:49.099Z,76.5
2018-12-14T08:06:51.164Z,77.0
2018-12-14T08:07:52.529Z,77.1
2018-12-14T08:08:53.877Z,77.2
2018-12-14T08:09:55.240Z,76.8
2018-12-14T08:10:56.594Z,77.0
2018-12-14T08:11:58.608Z,76.5
2018-12-14T08:13:01.638Z,76.5
2018-12-14T08:14:02.979Z,76.7
2018-12-14T08:15:04.336Z,76.7
2018-12-14T08:16:05.678Z,77.2
2018-12-14T08:17:07.039Z,77.3
2018-12-14T08:18:08.393Z,77.0
2018-12-14T08:19:10.579Z,77.1
2018-12-14T08:20:16.919Z,77.0
2018-12-14T08:21:16.529Z,76.9
2018-12-14T08:22:18.134Z,77.2
2018-12-14T08:23:19.438Z,76.8
2018-12-14T08:24:22.104Z,76.7
2018-12-14T08:25:24.439Z,76.7
2018-12-14T08:26:25.779Z,76.9
2018-12-14T08:27:29.028Z,76.9
2018-12-14T08:28:30.365Z,76.8
2018-12-14T08:29:31.718Z,77.2
2018-12-14T08:30:37.166Z,77.1
2018-12-14T08:31:38.527Z,77.0
2018-12-14T08:32:39.888Z,76.8
2018-12-14T08:33:41.867Z,77.1
2018-12-14T08:34:43.207Z,77.1
2018-12-14T08:35:45.207Z,77.1
2018-12-14T08:36:46.580Z,76.6
2018-12-14T08:37:49.180Z,76.5
2018-12-14T08:38:51.415Z,76.6
2018-12-14T08:39:52.796Z,76.6
2018-12-14T08:40:54.743Z,76.4
2018-12-14T08:41:56.094Z,76.5
2018-12-14T08:42:57.449Z,76.7
2018-12-14T08:43:58.833Z,76.5
2018-12-14T08:45:00.210Z,76.5
2018-12-14T08:46:02.063Z,76.5
2018-12-14T08:47:03.412Z,76.5
2018-12-14T08:48:06.264Z,76.5
2018-12-14T08:49:08.412Z,76.8
2018-12-14T08:50:10.463Z,77.3
2018-12-14T08:51:12.665Z,76.5
2018-12-14T08:52:15.531Z,76.7
2018-12-14T08:53:16.018Z,76.5
2018-12-14T08:54:17.390Z,76.6
2018-12-14T08:55:20.220Z,76.6
2018-12-14T08:56:21.574Z,76.5
2018-12-14T08:57:22.920Z,76.5
2018-12-14T08:58:24.271Z,76.6
2018-12-14T08:59:26.242Z,76.5
2018-12-14T09:00:27.612Z,76.5
2018-12-14T09:01:28.962Z,76.6
2018-12-14T09:02:30.304Z,76.5
2018-12-14T09:03:33.084Z,76.8
2018-12-14T09:04:34.428Z,76.4
2018-12-14T09:05:37.229Z,76.1
2018-12-14T09:06:39.384Z,76.2
2018-12-14T09:07:40.731Z,76.2
2018-12-14T09:08:42.820Z,76.3
2018-12-14T09:09:45.761Z,76.4
2018-12-14T09:10:47.147Z,76.3
2018-12-14T09:11:48.490Z,76.3
2018-12-14T09:12:51.434Z,76.2
2018-12-14T09:13:52.779Z,76.4
2018-12-14T09:14:56.109Z,76.2
2018-12-14T09:15:57.476Z,76.3
2018-12-14T09:16:58.830Z,76.1
2018-12-14T09:18:00.175Z,76.2
2018-12-14T09:19:01.533Z,76.3
2018-12-14T09:20:04.234Z,76.2
2018-12-14T09:21:05.715Z,76.4
2018-12-14T09:22:07.071Z,76.4
2018-12-14T09:23:08.424Z,76.3
2018-12-14T09:24:09.815Z,76.3
2018-12-14T09:25:11.194Z,76.3
2018-12-14T09:26:14.111Z,76.1
2018-12-14T09:27:16.282Z,76.3
2018-12-14T09:28:18.235Z,76.1
2018-12-14T09:29:19.589Z,76.1
2018-12-14T09:30:21.764Z,76.1
2018-12-14T09:31:23.119Z,76.0
2018-12-14T09:32:24.474Z,76.4
2018-12-14T09:33:25.829Z,76.3
2018-12-14T09:34:27.174Z,76.4
2018-12-14T09:35:28.546Z,76.3
2018-12-14T09:36:30.536Z,76.0
2018-12-14T09:37:31.919Z,76.3
2018-12-14T09:38:33.261Z,76.3
2018-12-14T09:39:34.614Z,76.3
2018-12-14T09:40:35.964Z,76.4
2018-12-14T09:41:38.668Z,76.3
2018-12-14T09:42:40.024Z,76.3
2018-12-14T09:43:41.496Z,76.5
2018-12-14T09:44:42.839Z,76.7
2018-12-14T09:45:45.891Z,76.7
2018-12-14T09:46:47.261Z,76.4
2018-12-14T09:47:49.158Z,76.5
2018-12-14T09:48:50.570Z,76.5
2018-12-14T09:49:53.746Z,76.6
2018-12-14T09:50:56.190Z,76.5
2018-12-14T09:51:59.813Z,76.5
2018-12-14T09:53:01.251Z,76.8
2018-12-14T09:54:02.615Z,76.6
2018-12-14T09:55:03.970Z,76.4
2018-12-14T09:56:05.324Z,76.4
2018-12-14T09:57:06.666Z,76.4
2018-12-14T09:58:08.636Z,76.2
2018-12-14T09:59:10.799Z,76.4
2018-12-14T10:00:12.162Z,76.4
2018-12-14T10:01:14.431Z,76.1
2018-12-14T10:02:14.848Z,76.1
2018-12-14T10:03:16.257Z,76.1
2018-12-14T10:04:17.610Z,76.1
2018-12-14T10:05:19.869Z,76.4
2018-12-14T10:06:21.924Z,76.3
2018-12-14T10:07:24.052Z,76.3
2018-12-14T10:08:26.189Z,76.2
2018-12-14T10:09:27.538Z,76.3
2018-12-14T10:10:28.890Z,76.3
2018-12-14T10:11:30.242Z,76.5
2018-12-14T10:12:32.580Z,76.3
2018-12-14T10:13:34.625Z,76.6
2018-12-14T10:14:35.979Z,76.4
2018-12-14T10:15:37.326Z,76.7
2018-12-14T10:16:39.309Z,76.5
2018-12-14T10:17:40.669Z,76.5
2018-12-14T10:18:42.030Z,76.7
2018-12-14T10:19:43.392Z,76.7
2018-12-14T10:20:44.764Z,76.6
2018-12-14T10:21:46.134Z,76.4
2018-12-14T10:22:47.481Z,76.1
2018-12-14T10:23:48.833Z,76.6
2018-12-14T10:24:50.190Z,76.0
2018-12-14T10:25:51.549Z,76.1
2018-12-14T10:26:52.896Z,76.2
2018-12-14T10:27:55.184Z,76.4
2018-12-14T10:28:56.537Z,76.3
2018-12-14T10:29:58.711Z,76.3
2018-12-14T10:31:00.705Z,76.4
2018-12-14T10:32:02.090Z,76.1
2018-12-14T10:33:04.454Z,76.3
2018-12-14T10:34:05.827Z,76.2
2018-12-14T10:35:08.112Z,76.1
2018-12-14T10:36:09.476Z,76.4
2018-12-14T10:37:11.566Z,76.5
2018-12-14T10:38:12.960Z,76.3
2018-12-14T10:39:14.718Z,76.6
2018-12-14T10:40:16.071Z,76.4
2018-12-14T10:41:19.476Z,76.4
2018-12-14T10:42:20.825Z,76.4
2018-12-14T10:43:22.182Z,76.9
2018-12-14T10:44:23.545Z,76.4
2018-12-14T10:45:24.925Z,76.5
2018-12-14T10:46:26.268Z,76.7
2018-12-14T10:47:28.213Z,76.7
2018-12-14T10:48:29.563Z,76.5
2018-12-14T10:49:30.927Z,76.4
2018-12-14T10:50:39.351Z,76.5
2018-12-14T10:51:33.689Z,76.4
2018-12-14T10:52:35.398Z,76.6
2018-12-14T10:53:36.761Z,76.8
2018-12-14T10:54:38.733Z,76.7
2018-12-14T10:55:40.100Z,76.4
2018-12-14T10:56:41.457Z,76.6
2018-12-14T10:57:43.445Z,76.3
2018-12-14T10:58:44.861Z,76.3
2018-12-14T10:59:46.159Z,76.3
2018-12-14T11:00:48.705Z,76.4
2018-12-14T11:01:50.071Z,76.4
2018-12-14T11:02:51.433Z,76.4
2018-12-14T11:03:52.775Z,76.6
2018-12-14T11:04:54.168Z,76.6
2018-12-14T11:05:55.536Z,76.4
2018-12-14T11:06:56.891Z,76.1
2018-12-14T11:07:58.757Z,76.4
2018-12-14T11:09:00.775Z,76.3
2018-12-14T11:10:02.126Z,76.4
2018-12-14T11:11:04.071Z,76.1
2018-12-14T11:12:05.428Z,76.4
2018-12-14T11:13:06.785Z,76.4
2018-12-14T11:14:13.748Z,76.4
2018-12-14T11:15:10.877Z,76.3
2018-12-14T11:16:12.250Z,76.3
2018-12-14T11:17:13.635Z,76.2
2018-12-14T11:18:14.985Z,76.3
2018-12-14T11:19:16.325Z,76.4
2018-12-14T11:20:17.686Z,75.9
2018-12-14T11:21:20.759Z,76.1
2018-12-14T11:22:22.128Z,76.1
2018-12-14T11:23:24.059Z,75.6
2018-12-14T11:24:25.707Z,76.0
2018-12-14T11:25:29.397Z,75.8
2018-12-14T11:26:30.766Z,76.0
2018-12-14T11:27:34.768Z,75.7
2018-12-14T11:28:36.128Z,76.0
2018-12-14T11:29:37.472Z,75.7
2018-12-14T11:30:38.822Z,75.6
2018-12-14T11:31:41.056Z,75.6
2018-12-14T11:32:42.140Z,76.0
2018-12-14T11:33:43.510Z,76.6
2018-12-14T11:34:45.408Z,76.3
2018-12-14T11:35:46.751Z,76.3
2018-12-14T11:36:48.171Z,76.4
2018-12-14T11:37:49.516Z,75.9
2018-12-14T11:38:51.916Z,76.3
2018-12-14T11:39:52.702Z,76.3
2018-12-14T11:40:54.047Z,76.4
2018-12-14T11:41:55.406Z,76.2
2018-12-14T11:42:56.755Z,76.3
2018-12-14T11:44:00.573Z,76.4
2018-12-14T11:45:01.932Z,76.0
2018-12-14T11:46:05.717Z,75.6
2018-12-14T11:47:08.480Z,76.0
2018-12-14T11:48:09.836Z,76.0
2018-12-14T11:49:12.040Z,76.0
2018-12-14T11:50:15.252Z,75.6
2018-12-14T11:51:18.116Z,75.6
2018-12-14T11:52:19.455Z,75.7
2018-12-14T11:53:22.705Z,76.0
2018-12-14T11:54:24.068Z,76.0
2018-12-14T11:55:25.407Z,76.0
2018-12-14T11:56:26.775Z,75.8
2018-12-14T11:57:28.128Z,75.8
2018-12-14T11:58:29.481Z,75.8
2018-12-14T11:59:30.841Z,75.9
2018-12-14T12:00:32.192Z,75.9
2018-12-14T12:01:34.495Z,75.8
2018-12-14T12:02:35.860Z,76.1
2018-12-14T12:03:42.662Z,75.5
2018-12-14T12:04:38.528Z,75.8
2018-12-14T12:05:40.717Z,76.2
2018-12-14T12:06:42.097Z,75.7
2018-12-14T12:07:44.728Z,75.8
2018-12-14T12:08:46.085Z,75.8
2018-12-14T12:09:47.446Z,75.9
2018-12-14T12:10:48.787Z,76.1
2018-12-14T12:11:50.873Z,76.1
2018-12-14T12:12:53.076Z,76.2
2018-12-14T12:13:53.547Z,76.0
2018-12-14T12:14:54.902Z,75.8
2018-12-14T12:15:58.323Z,75.3
2018-12-14T12:16:59.665Z,75.5
2018-12-14T12:18:01.025Z,75.5
2018-12-14T12:19:04.063Z,75.4
2018-12-14T12:20:04.523Z,75.5
2018-12-14T12:21:06.992Z,74.9
2018-12-14T12:22:09.066Z,75.4
2018-12-14T12:23:09.662Z,75.1
2018-12-14T12:24:11.613Z,75.4
2018-12-14T12:25:12.961Z,75.1
2018-12-14T12:26:14.308Z,75.2
2018-12-14T12:27:15.662Z,75.0
2018-12-14T12:28:17.010Z,75.2
2018-12-14T12:29:18.966Z,74.9
2018-12-14T12:30:20.327Z,75.0
2018-12-14T12:31:21.690Z,75.1
2018-12-14T12:32:23.040Z,75.1
2018-12-14T12:33:24.440Z,75.0
2018-12-14T12:34:26.414Z,75.2
2018-12-14T12:35:27.747Z,75.0
2018-12-14T12:36:30.592Z,75.2
2018-12-14T12:37:31.968Z,75.6
2018-12-14T12:38:38.154Z,75.6
2018-12-14T12:39:36.078Z,75.4
2018-12-14T12:40:37.416Z,75.7
2018-12-14T12:41:38.769Z,75.4
2018-12-14T12:42:42.272Z,75.4
2018-12-14T12:43:43.629Z,75.3
2018-12-14T12:44:46.189Z,75.2
2018-12-14T12:45:47.628Z,75.6
2018-12-14T12:46:48.985Z,75.2
2018-12-14T12:47:50.332Z,76.0
2018-12-14T12:48:51.691Z,76.1
2018-12-14T12:49:53.061Z,75.8
2018-12-14T12:50:54.422Z,75.8
2018-12-14T12:51:55.802Z,75.8
2018-12-14T12:52:57.142Z,75.8
2018-12-14T12:54:00.022Z,76.0
2018-12-14T12:55:01.380Z,76.1
2018-12-14T12:56:02.786Z,76.1
2018-12-14T12:57:04.131Z,75.8
2018-12-14T12:58:05.541Z,75.8
2018-12-14T12:59:06.895Z,76.2
2018-12-14T13:00:09.056Z,76.0
2018-12-14T13:01:10.406Z,76.0
2018-12-14T13:02:11.772Z,76.0
2018-12-14T13:03:13.127Z,75.9
2018-12-14T13:04:15.127Z,75.7
2018-12-14T13:05:16.479Z,75.4
2018-12-14T13:06:19.693Z,75.6
2018-12-14T13:07:21.047Z,75.2
2018-12-14T13:08:23.798Z,75.2
2018-12-14T13:09:26.021Z,75.6
2018-12-14T13:10:27.377Z,75.3
2018-12-14T13:11:28.733Z,75.3
2018-12-14T13:12:30.086Z,75.3
2018-12-14T13:13:31.453Z,75.9
2018-12-14T13:14:39.735Z,75.9
2018-12-14T13:15:34.683Z,76.2
2018-12-14T13:16:36.037Z,75.8
2018-12-14T13:17:37.388Z,76.0
2018-12-14T13:18:38.738Z,76.0
2018-12-14T13:19:40.122Z,75.9
2018-12-14T13:20:41.476Z,75.8
2018-12-14T13:21:44.746Z,76.1
2018-12-14T13:22:46.099Z,75.8
2018-12-14T13:23:47.451Z,75.8
2018-12-14T13:24:48.787Z,75.8
2018-12-14T13:25:50.961Z,75.9
2018-12-14T13:26:52.306Z,75.8
2018-12-14T13:27:54.522Z,75.7
2018-12-14T13:28:55.876Z,75.8
2018-12-14T13:29:58.673Z,75.7
2018-12-14T13:31:00.108Z,75.8
2018-12-14T13:32:01.468Z,75.9
2018-12-14T13:33:02.806Z,75.8
2018-12-14T13:34:04.159Z,75.7
2018-12-14T13:35:05.521Z,75.8
2018-12-14T13:36:06.877Z,75.8
2018-12-14T13:37:08.227Z,75.8
2018-12-14T13:38:10.158Z,75.2
2018-12-14T13:39:11.514Z,75.6
2018-12-14T13:40:12.863Z,75.6
2018-12-14T13:41:14.239Z,75.3
2018-12-14T13:42:15.587Z,75.4